Time;durP1;ratioP1;P1;durP2;ratioP2;P2;SDS_P1;SDS_P2;PMS_P1;PMS_P2;Temp;Humidity;BMP_temperature;BMP_pressure;BME280_temperature;BME280_humidity;BME280_pressure;Samples;Min_cycle;Max_cycle;Signal;HPM_P1;HPM_P2
2022/03/22 00:00:17;;;;;;;53.97;26.48;;;;;;;10.02;57.71;103165.63;4926335;28;20079;-58
2022/03/22 00:02:43;;;;;;;55.00;26.42;;;;;;;9.98;57.92;103170.63;4913650;28;20129;-59
2022/03/22 00:05:08;;;;;;;54.67;26.83;;;;;;;9.92;58.14;103165.97;4918495;28;20050;-58
2022/03/22 00:07:34;;;;;;;58.75;27.35;;;;;;;9.87;58.12;103170.06;4919643;28;20361;-59
2022/03/22 00:09:59;;;;;;;56.78;26.83;;;;;;;9.84;58.40;103167.28;4919130;28;20149;-59
2022/03/22 00:12:25;;;;;;;54.60;27.42;;;;;;;9.77;58.49;103171.28;4917846;28;20043;-58
2022/03/22 00:14:50;;;;;;;52.00;26.27;;;;;;;9.72;58.86;103169.22;4920377;28;20146;-59
2022/03/22 00:17:16;;;;;;;56.95;27.42;;;;;;;9.77;59.35;103168.66;4916939;28;20609;-59
2022/03/22 00:19:41;;;;;;;54.92;27.25;;;;;;;9.76;58.87;103169.47;4924828;28;20086;-60
2022/03/22 00:22:06;;;;;;;56.40;27.67;;;;;;;9.78;59.17;103164.34;4913881;28;20803;-60
2022/03/22 00:24:32;;;;;;;54.28;27.13;;;;;;;9.82;58.85;103157.63;4919201;28;20396;-59
2022/03/22 00:26:57;;;;;;;54.95;26.67;;;;;;;9.82;58.61;103162.81;4910845;28;20047;-59
2022/03/22 00:29:22;;;;;;;58.17;28.02;;;;;;;9.85;58.88;103169.06;4919927;28;20118;-59
2022/03/22 00:31:48;;;;;;;57.08;28.38;;;;;;;9.81;58.79;103169.75;4916216;28;20088;-59
2022/03/22 00:34:13;;;;;;;56.28;26.63;;;;;;;9.84;59.04;103169.88;4916501;28;20412;-59
2022/03/22 00:36:43;;;;;;;57.28;27.63;;;;;;;9.87;59.22;103176.97;4917388;28;20729;-59
2022/03/22 00:39:09;;;;;;;54.03;28.15;;;;;;;9.86;58.86;103173.47;4918701;28;20156;-59
2022/03/22 00:41:34;;;;;;;58.45;27.77;;;;;;;9.87;59.09;103176.97;4919047;28;20070;-59
2022/03/22 00:44:00;;;;;;;58.30;27.55;;;;;;;9.88;59.11;103174.44;4918995;28;20071;-58
2022/03/22 00:46:25;;;;;;;57.58;28.35;;;;;;;9.86;59.30;103178.69;4913602;28;20574;-59
2022/03/22 00:48:51;;;;;;;57.13;28.27;;;;;;;9.85;58.94;103181.19;4896790;28;20493;-58
2022/03/22 00:51:16;;;;;;;58.30;27.63;;;;;;;9.82;59.21;103173.25;4915416;28;20237;-58
2022/03/22 00:53:41;;;;;;;52.95;27.13;;;;;;;9.81;58.99;103172.34;4922495;28;20051;-59
2022/03/22 00:56:08;;;;;;;56.70;26.90;;;;;;;9.81;59.39;103172.34;4923112;28;20047;-60
2022/03/22 00:58:34;;;;;;;54.25;27.75;;;;;;;9.83;59.17;103173.31;4907635;28;20138;-60
2022/03/22 01:00:59;;;;;;;55.80;28.92;;;;;;;9.86;59.80;103169.97;4914012;28;20059;-58
2022/03/22 01:03:28;;;;;;;56.70;28.65;;;;;;;9.86;59.62;103168.25;4920198;28;20046;-59
2022/03/22 01:05:54;;;;;;;58.78;28.58;;;;;;;9.81;59.54;103172.34;4919088;28;20047;-59
2022/03/22 01:08:20;;;;;;;59.55;28.00;;;;;;;9.69;59.86;103163.88;4919599;28;20732;-58
2022/03/22 01:10:52;;;;;;;56.83;29.35;;;;;;;9.63;59.89;103166.16;4917398;28;20140;-58
2022/03/22 01:13:18;;;;;;;58.75;28.73;;;;;;;9.57;59.92;103168.44;4911453;28;20051;-59
2022/03/22 01:15:43;;;;;;;55.30;27.85;;;;;;;9.56;60.16;103174.44;4913444;28;20046;-58
2022/03/22 01:18:10;;;;;;;56.42;27.88;;;;;;;9.55;60.06;103167.44;4920844;28;20050;-59
2022/03/22 01:20:38;;;;;;;61.33;29.55;;;;;;;9.47;60.66;103167.03;4910466;28;20051;-59
2022/03/22 01:23:04;;;;;;;63.63;29.63;;;;;;;9.41;61.04;103171.91;4906714;28;20031;-59
2022/03/22 01:25:32;;;;;;;58.72;28.77;;;;;;;9.34;61.89;103165.44;4918677;28;20054;-58
2022/03/22 01:27:58;;;;;;;61.50;28.20;;;;;;;9.36;61.08;103165.53;4919197;28;20051;-58
2022/03/22 01:30:25;;;;;;;63.10;30.00;;;;;;;9.33;61.58;103166.25;4919383;28;20594;-58
2022/03/22 01:32:53;;;;;;;59.92;28.85;;;;;;;9.30;61.28;103166.09;4909617;28;20137;-58
2022/03/22 01:35:19;;;;;;;69.43;31.30;;;;;;;9.26;61.58;103166.75;4921305;28;20577;-58
2022/03/22 01:37:47;;;;;;;60.85;30.27;;;;;;;9.22;62.02;103159.56;4912578;28;20113;-59
2022/03/22 01:40:13;;;;;;;64.88;29.83;;;;;;;9.22;62.03;103164.78;4921417;28;20047;-59
2022/03/22 01:42:39;;;;;;;62.72;30.30;;;;;;;9.19;62.42;103156.81;4905506;28;20043;-59
2022/03/22 01:45:07;;;;;;;60.78;28.15;;;;;;;9.22;62.08;103159.56;4919730;28;20126;-59
2022/03/22 01:47:35;;;;;;;59.63;29.08;;;;;;;9.21;62.37;103155.19;4913504;28;20102;-58
2022/03/22 01:50:01;;;;;;;60.63;29.48;;;;;;;9.23;62.09;103152.66;4920872;28;20047;-58
2022/03/22 01:52:26;;;;;;;60.10;29.63;;;;;;;9.20;62.27;103158.63;4913289;28;20050;-60
2022/03/22 01:54:55;;;;;;;62.63;29.50;;;;;;;9.21;62.21;103155.19;4913661;28;20772;-59
2022/03/22 01:57:22;;;;;;;61.88;29.27;;;;;;;9.20;62.44;103150.81;4919904;28;20596;-60
2022/03/22 01:59:49;;;;;;;58.47;28.65;;;;;;;9.24;61.80;103151.84;4920042;28;20058;-60
2022/03/22 02:07:48;;;;;;;64.50;31.85;;;;;;;9.36;61.75;103145.63;4915678;28;20410;-59
2022/03/22 02:10:13;;;;;;;72.60;32.65;;;;;;;9.41;62.26;103135.44;4921523;28;20614;-59
2022/03/22 02:12:40;;;;;;;68.97;31.85;;;;;;;9.48;61.90;103137.56;4915088;28;20159;-58
2022/03/22 02:15:07;;;;;;;63.97;31.75;;;;;;;9.50;61.99;103135.97;4916194;28;20043;-58
2022/03/22 02:17:34;;;;;;;63.72;31.95;;;;;;;9.56;62.38;103128.47;4906719;28;20171;-59
2022/03/22 02:20:01;;;;;;;63.65;31.75;;;;;;;9.61;62.27;103137.41;4920012;28;20047;-59
2022/03/22 02:22:40;;;;;;;69.82;34.45;;;;;;;9.66;63.21;103135.94;4915182;28;20043;-59
2022/03/22 02:25:15;;;;;;;70.10;33.08;;;;;;;9.83;62.23;103138.53;4919000;28;20161;-58
2022/03/22 02:27:44;;;;;;;70.45;33.63;;;;;;;9.91;62.35;103130.31;4916235;28;20051;-60
2022/03/22 02:30:11;;;;;;;68.10;33.83;;;;;;;10.08;61.94;103126.84;4919515;28;20351;-59
2022/03/22 02:32:36;;;;;;;69.28;35.15;;;;;;;10.13;62.00;103127.97;4912231;28;20422;-59
2022/03/22 02:35:04;;;;;;;72.55;34.22;;;;;;;10.29;61.71;103124.50;4920381;28;20043;-58
2022/03/22 02:37:32;;;;;;;73.60;34.60;;;;;;;10.37;61.15;103128.34;4923450;28;20055;-61
2022/03/22 02:39:57;;;;;;;69.65;34.15;;;;;;;10.41;61.06;103126.81;4913439;28;20360;-59
2022/03/22 02:42:22;;;;;;;78.28;36.13;;;;;;;10.38;61.00;103130.16;4911036;28;20074;-56
2022/03/22 02:44:48;;;;;;;72.60;35.63;;;;;;;10.40;61.07;103130.22;4900237;28;20063;-58
2022/03/22 02:47:13;;;;;;;69.20;35.08;;;;;;;10.45;60.91;103131.34;4910936;28;20270;-59
2022/03/22 02:49:39;;;;;;;68.28;34.72;;;;;;;10.47;61.09;103132.34;4919966;28;20090;-59
2022/03/22 02:52:05;;;;;;;69.43;34.95;;;;;;;10.47;60.63;103127.13;4915786;28;20481;-58
2022/03/22 02:54:31;;;;;;;73.10;35.53;;;;;;;10.55;60.71;103133.63;4900526;28;20047;-60
2022/03/22 02:56:56;;;;;;;68.43;35.22;;;;;;;10.61;61.22;103127.81;4918814;28;20050;-58
2022/03/22 02:59:22;;;;;;;74.07;35.90;;;;;;;10.68;60.36;103122.03;4917954;28;21487;-59
2022/03/22 03:01:47;;;;;;;68.45;34.22;;;;;;;10.70;60.20;103121.31;4925177;28;20114;-59
2022/03/22 03:04:12;;;;;;;69.60;34.17;;;;;;;10.75;60.34;103127.63;4919714;28;20469;-58
2022/03/22 03:06:38;;;;;;;75.15;34.92;;;;;;;10.70;60.48;103123.03;4916946;28;20524;-58
2022/03/22 03:09:04;;;;;;;78.43;35.38;;;;;;;10.65;60.72;103127.13;4922907;28;20051;-59
2022/03/22 03:11:29;;;;;;;69.53;34.08;;;;;;;10.57;60.11;103131.97;4921828;28;20525;-58
2022/03/22 03:16:43;;;;;;;74.47;35.28;;;;;;;10.48;60.62;103132.41;4905584;28;20073;-59
2022/03/22 03:19:08;;;;;;;70.50;34.95;;;;;;;10.43;60.57;103133.00;4919508;28;20521;-58
2022/03/22 03:21:34;;;;;;;70.82;35.85;;;;;;;10.30;61.40;103136.72;4914393;28;20035;-60
2022/03/22 03:24:00;;;;;;;74.82;36.55;;;;;;;10.25;61.26;103132.94;4923466;28;20353;-58
2022/03/22 03:26:25;;;;;;;73.38;35.35;;;;;;;10.22;61.32;103130.22;4915073;28;20432;-60
2022/03/22 03:28:51;;;;;;;76.00;36.33;;;;;;;10.13;61.96;103127.09;4920540;28;20067;-57
2022/03/22 03:31:17;;;;;;;78.65;36.30;;;;;;;10.14;61.72;103128.88;4919211;28;20081;-56
2022/03/22 03:33:42;;;;;;;72.50;34.63;;;;;;;10.08;61.39;103123.34;4920862;28;20114;-57
2022/03/22 03:36:07;;;;;;;74.68;35.92;;;;;;;9.97;62.00;103127.13;4923737;28;20089;-59
2022/03/22 03:38:41;;;;;;;74.88;36.17;;;;;;;9.95;61.72;103128.75;4912053;28;20154;-59
2022/03/22 03:43:56;;;;;;;78.32;35.90;;;;;;;9.97;62.28;103125.41;4922059;28;20533;-59
2022/03/22 03:49:08;;;;;;;71.13;34.88;;;;;;;10.15;62.09;103131.56;4923432;28;20159;-58
2022/03/22 03:51:34;;;;;;;74.35;36.40;;;;;;;10.12;62.26;103134.00;4924096;28;21158;-60
2022/03/22 03:54:00;;;;;;;73.72;36.50;;;;;;;10.09;62.79;103138.19;4919089;28;20089;-59
2022/03/22 03:56:26;;;;;;;76.55;36.50;;;;;;;10.08;64.14;103132.06;4903796;28;20102;-58
2022/03/22 03:58:51;;;;;;;73.35;35.47;;;;;;;10.18;63.55;103135.19;4921975;28;20055;-56
2022/03/22 04:01:17;;;;;;;68.75;34.33;;;;;;;10.26;63.24;103136.47;4915378;28;20443;-60
2022/03/22 04:03:42;;;;;;;71.47;35.83;;;;;;;10.26;62.88;103139.97;4919728;28;20090;-58
2022/03/22 04:06:08;;;;;;;78.25;37.05;;;;;;;10.25;64.03;103138.16;4923558;28;20519;-60
2022/03/22 04:08:33;;;;;;;70.78;35.90;;;;;;;10.41;63.33;103143.34;4914759;28;20483;-59
2022/03/22 04:10:59;;;;;;;75.15;37.03;;;;;;;10.48;62.85;103137.63;4918669;28;20051;-60
2022/03/22 04:13:24;;;;;;;69.13;36.13;;;;;;;10.49;63.04;103147.22;4920865;28;20050;-59
2022/03/22 04:15:52;;;;;;;73.45;36.63;;;;;;;10.53;62.95;103141.34;4916765;28;20595;-58
2022/03/22 04:18:17;;;;;;;72.63;36.10;;;;;;;10.63;62.45;103137.47;4917410;28;20047;-59
2022/03/22 04:20:43;;;;;;;71.40;35.72;;;;;;;10.64;62.79;103143.59;4917401;28;20047;-58
2022/03/22 04:23:08;;;;;;;65.85;35.25;;;;;;;10.66;62.15;103148.06;4919652;28;20054;-59
2022/03/22 04:25:34;;;;;;;72.35;37.35;;;;;;;10.62;62.75;103143.50;4919894;28;20073;-59
2022/03/22 04:33:27;;;;;;;71.72;36.90;;;;;;;10.64;62.77;103148.81;4920923;28;20093;-59
2022/03/22 04:35:53;;;;;;;70.22;35.65;;;;;;;10.69;62.49;103143.00;4923249;28;20047;-59
2022/03/22 04:38:18;;;;;;;72.05;35.47;;;;;;;10.73;62.04;103147.56;4913451;28;20048;-57
2022/03/22 04:40:43;;;;;;;68.15;35.20;;;;;;;10.68;62.49;103141.19;4918577;28;21962;-59
2022/03/22 04:43:09;;;;;;;70.55;35.50;;;;;;;10.60;63.14;103141.66;4916512;28;20121;-58
2022/03/22 04:45:35;;;;;;;72.25;35.47;;;;;;;10.60;62.37;103144.28;4924123;28;20086;-59
2022/03/22 04:48:01;;;;;;;71.15;37.63;;;;;;;10.46;63.37;103144.47;4905953;28;20031;-59
2022/03/22 04:50:26;;;;;;;72.72;36.05;;;;;;;10.52;62.58;103150.00;4910261;28;20067;-58
2022/03/22 04:58:20;;;;;;;71.72;36.15;;;;;;;10.38;63.58;103153.63;4910953;28;20581;-59
2022/03/22 05:00:46;;;;;;;76.07;36.90;;;;;;;10.35;63.14;103158.69;4914028;28;20249;-58
2022/03/22 05:03:11;;;;;;;69.82;36.55;;;;;;;10.28;64.45;103156.59;4921225;28;20058;-59
2022/03/22 05:08:21;;;;;;;67.97;35.27;;;;;;;10.42;63.34;103152.97;4919087;28;20046;-59
2022/03/22 05:10:47;;;;;;;73.20;37.05;;;;;;;10.31;64.25;103161.03;4900511;28;21058;-57
2022/03/22 05:13:12;;;;;;;75.18;36.83;;;;;;;10.36;63.44;103163.09;4905117;28;20570;-59
2022/03/22 05:15:38;;;;;;;73.47;36.35;;;;;;;10.37;63.35;103158.78;4925930;28;20056;-60
2022/03/22 05:18:05;;;;;;;69.68;36.25;;;;;;;10.38;63.86;103158.84;4914045;28;21334;-60
2022/03/22 05:20:30;;;;;;;75.55;37.03;;;;;;;10.25;64.33;103160.72;4914490;28;20058;-57
2022/03/22 05:22:58;;;;;;;78.07;36.92;;;;;;;10.36;63.74;103163.09;4919971;28;20042;-57
2022/03/22 05:25:23;;;;;;;74.15;36.78;;;;;;;10.34;63.89;103161.22;4922526;28;20055;-59
2022/03/22 05:27:49;;;;;;;73.88;36.33;;;;;;;10.43;63.38;103161.69;4923324;28;20054;-60
2022/03/22 05:30:14;;;;;;;73.32;37.83;;;;;;;10.41;63.41;103164.22;4921560;28;20183;-60
2022/03/22 05:32:40;;;;;;;72.05;36.53;;;;;;;10.37;63.96;103172.69;4913638;28;20080;-61
2022/03/22 05:35:05;;;;;;;71.25;36.25;;;;;;;10.45;63.53;103173.06;4923410;28;20317;-58
2022/03/22 05:37:31;;;;;;;79.30;36.60;;;;;;;10.41;63.75;103174.66;4916572;28;20542;-58
2022/03/22 05:39:56;;;;;;;74.70;35.58;;;;;;;10.42;63.80;103179.06;4910927;28;20134;-57
2022/03/22 05:42:22;;;;;;;66.25;35.90;;;;;;;10.43;63.44;103175.59;4915500;28;20167;-57
2022/03/22 05:44:47;;;;;;;71.13;35.90;;;;;;;10.42;63.65;103180.75;4916249;28;20053;-59
2022/03/22 05:47:13;;;;;;;71.10;36.28;;;;;;;10.36;64.05;103173.53;4915189;28;20050;-58
2022/03/22 05:49:39;;;;;;;73.63;36.92;;;;;;;10.35;63.64;103183.88;4922879;28;20587;-58
2022/03/22 05:52:05;;;;;;;72.72;37.53;;;;;;;10.30;63.85;103174.94;4916136;28;20525;-59
2022/03/22 05:54:32;;;;;;;73.72;36.85;;;;;;;10.36;63.49;103180.44;4905759;28;20078;-59
2022/03/22 05:56:57;;;;;;;72.68;37.08;;;;;;;10.35;63.80;103179.56;4915556;28;20035;-59
2022/03/22 05:59:23;;;;;;;76.07;36.40;;;;;;;10.37;63.45;103184.84;4919023;28;20054;-58
2022/03/22 06:01:49;;;;;;;72.07;36.72;;;;;;;10.38;63.86;103179.69;4922492;28;20754;-59
2022/03/22 06:04:14;;;;;;;70.05;36.60;;;;;;;10.34;63.70;103182.97;4934542;28;20044;-59
2022/03/22 06:06:40;;;;;;;72.15;37.17;;;;;;;10.38;63.58;103178.78;4908223;28;20581;-59
2022/03/22 06:09:06;;;;;;;74.47;37.55;;;;;;;10.42;63.73;103191.19;4912437;28;20054;-60
2022/03/22 06:11:35;;;;;;;70.93;36.83;;;;;;;10.36;63.71;103181.34;4917549;28;20051;-58
2022/03/22 06:14:05;;;;;;;70.35;37.30;;;;;;;10.43;63.56;103183.41;4912834;28;20085;-58
2022/03/22 06:16:31;;;;;;;65.47;36.30;;;;;;;10.51;63.65;103186.44;4906595;28;20146;-61
2022/03/22 06:18:56;;;;;;;69.65;35.30;;;;;;;10.70;62.81;103183.03;4912680;28;20039;-59
2022/03/22 06:21:22;;;;;;;77.53;37.50;;;;;;;10.70;62.83;103190.84;4912071;28;20048;-58
2022/03/22 06:23:48;;;;;;;74.00;37.45;;;;;;;10.65;62.91;103190.63;4918911;28;20510;-59
2022/03/22 06:26:14;;;;;;;73.10;36.90;;;;;;;10.64;62.98;103198.38;4907570;28;20304;-60
2022/03/22 06:28:40;;;;;;;67.32;36.38;;;;;;;10.81;62.66;103198.38;4908546;28;20144;-59
2022/03/22 06:31:05;;;;;;;68.07;36.03;;;;;;;10.96;62.28;103195.63;4913049;28;20408;-60
2022/03/22 06:33:31;;;;;;;70.68;36.80;;;;;;;11.35;61.40;103197.53;4919174;28;20570;-59
2022/03/22 06:35:57;;;;;;;69.28;35.30;;;;;;;11.67;59.86;103200.75;4918364;28;20449;-60
2022/03/22 06:38:22;;;;;;;67.13;35.22;;;;;;;11.98;59.09;103198.72;4890987;28;20473;-60
2022/03/22 06:40:49;;;;;;;69.50;35.55;;;;;;;12.24;58.00;103204.22;4914037;28;20734;-65
2022/03/22 06:43:15;;;;;;;72.85;36.30;;;;;;;12.08;58.05;103207.88;4918414;28;20424;-60
2022/03/22 06:45:41;;;;;;;64.57;35.58;;;;;;;11.95;58.80;103206.44;4918769;28;20047;-60
2022/03/22 06:48:07;;;;;;;65.35;35.40;;;;;;;12.11;58.05;103208.00;4919612;28;20039;-60
2022/03/22 06:50:37;;;;;;;65.47;35.53;;;;;;;12.11;58.52;103210.63;4914305;28;20122;-59
2022/03/22 06:53:04;;;;;;;64.55;35.40;;;;;;;12.44;57.08;103201.63;4916713;28;20119;-60
2022/03/22 06:55:32;;;;;;;65.90;35.88;;;;;;;12.68;56.44;103213.97;4921708;28;20297;-60
2022/03/22 06:57:58;;;;;;;65.32;35.25;;;;;;;12.87;56.21;103211.25;4922238;28;20456;-60
2022/03/22 07:00:24;;;;;;;67.55;35.22;;;;;;;12.85;56.17;103211.22;4921562;28;20521;-60
2022/03/22 07:02:49;;;;;;;64.78;35.42;;;;;;;12.98;55.67;103213.50;4918361;28;20144;-59
2022/03/22 07:05:16;;;;;;;62.85;35.42;;;;;;;13.33;55.38;103211.44;4916237;28;20043;-60
2022/03/22 07:07:42;;;;;;;61.13;34.78;;;;;;;13.62;53.70;103209.91;4920887;28;20059;-64
2022/03/22 07:10:10;;;;;;;65.68;34.10;;;;;;;13.64;53.47;103209.16;4923261;28;20039;-61
2022/03/22 07:13:10;;;;;;;62.63;33.53;;;;;;;13.86;53.40;103207.31;4911238;28;20059;-60
2022/03/22 07:15:37;;;;;;;59.10;34.25;;;;;;;14.15;52.52;103211.88;4909755;28;20379;-60
2022/03/22 07:20:15;;;;;;;59.38;32.97;;;;;;;14.89;50.35;103211.88;5062482;27;20485;-61
2022/03/22 07:22:41;;;;;;;57.25;32.55;;;;;;;15.15;49.85;103210.09;5048097;28;20043;-59
2022/03/22 07:25:07;;;;;;;55.20;33.40;;;;;;;15.47;48.91;103210.22;5056054;28;20083;-59
2022/03/22 07:27:34;;;;;;;52.85;32.75;;;;;;;15.86;48.42;103213.16;5051144;28;20078;-60
2022/03/22 07:30:01;;;;;;;54.05;33.13;;;;;;;16.05;47.32;103215.44;5062807;28;20048;-60
2022/03/22 07:32:27;;;;;;;57.45;33.75;;;;;;;15.99;47.79;103217.91;5028094;28;20453;-60
2022/03/22 07:34:53;;;;;;;64.28;33.60;;;;;;;16.16;47.37;103216.66;5055430;28;20048;-59
2022/03/22 07:37:18;;;;;;;50.17;32.15;;;;;;;15.95;47.43;103227.47;5049954;28;20050;-59
2022/03/22 07:39:44;;;;;;;55.22;32.90;;;;;;;15.96;47.23;103220.47;5060375;28;20518;-60
2022/03/22 07:42:09;;;;;;;52.53;31.92;;;;;;;15.97;47.18;103223.16;5046650;28;20044;-59
2022/03/22 07:44:34;;;;;;;57.60;34.15;;;;;;;15.79;48.49;103226.16;5045846;28;20040;-59
2022/03/22 07:47:00;;;;;;;56.83;33.70;;;;;;;15.65;48.33;103222.22;5051429;28;20408;-59
2022/03/22 07:54:53;;;;;;;59.60;33.60;;;;;;;15.58;48.80;103228.13;5056202;28;20063;-59
2022/03/22 07:57:19;;;;;;;54.10;33.42;;;;;;;15.50;48.26;103229.59;5034317;28;20601;-59
2022/03/22 07:59:45;;;;;;;55.08;32.58;;;;;;;15.28;48.66;103225.41;5052761;28;20043;-58
2022/03/22 08:02:10;;;;;;;56.17;32.78;;;;;;;15.42;48.88;103224.13;5053391;27;20040;-60
2022/03/22 08:04:35;;;;;;;56.83;32.40;;;;;;;15.59;48.17;103221.13;5051816;28;20239;-61
2022/03/22 08:07:01;;;;;;;59.90;32.85;;;;;;;15.66;47.82;103224.00;5055123;28;20708;-59
2022/03/22 08:09:26;;;;;;;63.10;32.17;;;;;;;15.70;47.81;103227.59;5057959;28;20044;-60
2022/03/22 08:11:51;;;;;;;52.42;33.15;;;;;;;15.77;48.56;103230.47;5053716;28;20233;-60
2022/03/22 08:14:19;;;;;;;53.13;32.35;;;;;;;15.71;48.22;103232.00;5055212;28;20503;-59
2022/03/22 08:16:45;;;;;;;56.42;35.45;;;;;;;16.02;46.85;103242.59;5051478;28;20044;-59
2022/03/22 08:19:17;;;;;;;58.17;33.97;;;;;;;16.10;47.31;103242.81;5041280;28;20071;-60
2022/03/22 08:21:42;;;;;;;52.72;32.75;;;;;;;16.05;47.77;103245.28;5042099;28;20436;-60
2022/03/22 08:24:08;;;;;;;55.83;32.13;;;;;;;15.97;47.37;103254.72;5027188;28;20037;-60
2022/03/22 08:26:35;;;;;;;55.20;32.97;;;;;;;16.04;47.71;103237.38;5031634;28;20041;-61
2022/03/22 08:29:00;;;;;;;54.10;32.33;;;;;;;16.17;47.40;103244.75;5027837;28;20498;-59
2022/03/22 08:31:26;;;;;;;54.35;31.50;;;;;;;16.09;47.45;103249.81;5019001;28;20460;-59
2022/03/22 08:33:53;;;;;;;56.22;31.63;;;;;;;16.30;47.58;103248.59;5012593;28;20045;-58
2022/03/22 08:36:21;;;;;;;53.35;31.48;;;;;;;16.43;46.42;103253.34;5020940;28;20073;-59
2022/03/22 08:38:46;;;;;;;55.42;30.63;;;;;;;16.54;46.07;103254.53;5020795;28;20114;-60
2022/03/22 08:41:12;;;;;;;51.88;30.90;;;;;;;16.36;46.67;103254.94;5012504;28;20492;-60
2022/03/22 08:43:37;;;;;;;49.65;30.60;;;;;;;16.59;46.21;103261.72;5019828;28;20047;-60
2022/03/22 08:46:05;;;;;;;49.38;29.67;;;;;;;16.79;45.81;103251.72;5025214;28;20142;-59
2022/03/22 08:48:30;;;;;;;51.17;30.98;;;;;;;16.93;46.18;103252.09;5008619;28;20597;-60
2022/03/22 08:50:57;;;;;;;50.72;30.48;;;;;;;17.13;45.29;103250.84;5018434;28;20290;-60
2022/03/22 08:53:23;;;;;;;49.35;29.40;;;;;;;17.13;44.30;103250.84;5017352;28;20334;-59
2022/03/22 08:55:49;;;;;;;47.50;30.42;;;;;;;17.12;45.08;103253.44;5022448;28;20036;-59
2022/03/22 08:58:16;;;;;;;49.15;29.95;;;;;;;17.32;44.63;103252.16;5016863;28;20417;-60
2022/03/22 09:00:42;;;;;;;46.42;30.13;;;;;;;17.50;44.35;103259.59;5002152;28;20308;-59
2022/03/22 09:03:11;;;;;;;51.33;29.33;;;;;;;17.42;43.79;103264.69;5015385;28;20056;-59
2022/03/22 09:08:21;;;;;;;45.63;29.23;;;;;;;17.82;43.76;103258.56;5017476;28;20123;-59
2022/03/22 09:10:51;;;;;;;46.13;29.02;;;;;;;17.92;43.81;103257.03;5012768;28;20053;-57
2022/03/22 09:13:18;;;;;;;44.58;29.17;;;;;;;17.87;43.78;103264.84;5014700;28;20475;-60
2022/03/22 09:15:46;;;;;;;46.10;28.75;;;;;;;18.04;43.74;103260.81;5013154;28;20451;-59
2022/03/22 09:18:14;;;;;;;43.65;28.17;;;;;;;17.99;43.62;103266.88;5015947;28;20361;-58
2022/03/22 09:20:42;;;;;;;49.25;28.77;;;;;;;18.06;43.76;103256.44;5010547;28;20151;-59
2022/03/22 09:23:08;;;;;;;43.97;28.60;;;;;;;18.11;43.12;103264.47;5017305;28;20392;-58
2022/03/22 09:25:34;;;;;;;43.42;27.75;;;;;;;18.20;42.60;103257.63;5020194;28;20052;-60
2022/03/22 09:28:00;;;;;;;48.45;28.27;;;;;;;17.99;43.22;103257.19;5015015;28;20236;-60
2022/03/22 09:30:26;;;;;;;47.28;27.50;;;;;;;18.11;42.95;103251.28;5018695;28;20438;-58
2022/03/22 09:32:52;;;;;;;44.28;26.35;;;;;;;18.25;42.59;103250.69;4998866;28;20048;-60
2022/03/22 09:35:19;;;;;;;46.00;27.27;;;;;;;18.57;42.42;103253.06;5028251;28;20518;-61
2022/03/22 09:37:46;;;;;;;41.80;27.27;;;;;;;18.55;42.03;103255.69;5018382;28;20333;-59
2022/03/22 09:40:14;;;;;;;41.05;27.52;;;;;;;18.80;41.58;103257.00;5012504;28;20075;-58
2022/03/22 09:42:43;;;;;;;37.45;26.02;;;;;;;18.91;41.13;103254.53;5010520;28;20332;-59
2022/03/22 09:45:10;;;;;;;42.60;25.25;;;;;;;19.01;40.36;103253.84;5023745;28;20064;-58
2022/03/22 09:47:36;;;;;;;42.95;26.55;;;;;;;19.03;41.18;103254.72;5007299;28;20036;-59
2022/03/22 09:50:10;;;;;;;41.97;26.20;;;;;;;19.05;40.57;103250.38;5014521;28;20865;-60
2022/03/22 09:52:36;;;;;;;38.57;25.90;;;;;;;19.14;39.62;103247.88;5008743;28;20671;-59
2022/03/22 09:55:02;;;;;;;40.60;24.95;;;;;;;19.27;39.43;103248.97;5010572;28;20912;-58
2022/03/22 09:57:28;;;;;;;39.92;25.40;;;;;;;19.31;39.36;103248.13;5019273;28;20041;-59
2022/03/22 09:59:54;;;;;;;43.22;25.88;;;;;;;19.29;40.21;103252.50;5012692;28;20037;-59
2022/03/22 10:02:33;;;;;;;39.85;25.65;;;;;;;19.18;39.79;103243.53;5009142;28;20299;-58
2022/03/22 10:05:01;;;;;;;42.55;24.77;;;;;;;19.55;38.84;103245.00;5006808;28;20045;-59
2022/03/22 10:07:29;;;;;;;40.03;25.00;;;;;;;19.58;39.77;103242.41;5009545;28;20049;-59
2022/03/22 10:09:59;;;;;;;38.95;24.75;;;;;;;19.70;39.15;103240.78;5018358;28;20342;-59
2022/03/22 10:12:26;;;;;;;42.42;25.40;;;;;;;19.81;38.48;103235.66;5005290;28;20045;-59
2022/03/22 10:14:52;;;;;;;42.70;24.52;;;;;;;19.92;38.21;103238.41;5020698;28;20040;-59
2022/03/22 10:17:18;;;;;;;38.17;23.25;;;;;;;19.99;37.97;103240.28;5012833;28;20379;-58
2022/03/22 10:19:52;;;;;;;39.20;24.40;;;;;;;20.03;37.55;103240.31;5011063;28;20039;-58
2022/03/22 10:22:25;;;;;;;40.40;24.30;;;;;;;20.09;37.64;103243.03;5013725;28;20049;-58
2022/03/22 10:24:56;;;;;;;39.08;24.45;;;;;;;19.99;38.48;103241.16;5023997;28;20094;-59
2022/03/22 10:27:23;;;;;;;38.33;24.50;;;;;;;20.15;38.26;103237.81;5021268;28;20500;-63
2022/03/22 10:29:49;;;;;;;36.88;24.33;;;;;;;20.32;37.68;103242.41;5016947;28;20048;-59
2022/03/22 10:32:15;;;;;;;34.38;23.65;;;;;;;20.31;38.19;103241.50;5017166;28;20044;-59
2022/03/22 10:34:40;;;;;;;37.47;23.75;;;;;;;20.30;37.11;103238.88;5009975;28;20544;-58
2022/03/22 10:37:05;;;;;;;34.45;22.63;;;;;;;20.31;36.99;103238.00;5021715;28;20254;-58
2022/03/22 10:39:34;;;;;;;38.63;23.58;;;;;;;20.11;36.62;103237.78;5014314;28;20487;-58
2022/03/22 10:42:08;;;;;;;38.00;22.98;;;;;;;20.27;36.44;103243.25;5008143;28;20410;-59
2022/03/22 10:44:36;;;;;;;36.03;23.23;;;;;;;20.38;37.05;103237.19;5010556;28;20905;-59
2022/03/22 10:47:04;;;;;;;39.83;23.80;;;;;;;20.21;37.68;103237.00;5018976;28;20075;-58
2022/03/22 10:49:30;;;;;;;35.70;22.48;;;;;;;20.23;37.78;103236.16;5003192;28;20134;-57
2022/03/22 10:51:58;;;;;;;34.92;22.52;;;;;;;20.31;37.07;103241.50;5009576;28;20158;-59
2022/03/22 10:54:24;;;;;;;38.05;22.23;;;;;;;20.46;36.82;103233.75;5012042;28;20203;-58
2022/03/22 10:56:55;;;;;;;37.45;22.67;;;;;;;20.58;36.67;103236.53;5010331;28;20044;-59
2022/03/22 10:59:27;;;;;;;38.75;23.15;;;;;;;20.57;36.73;103236.50;4998937;28;20433;-58
2022/03/22 11:01:55;;;;;;;36.03;22.48;;;;;;;20.44;36.68;103238.16;5025504;28;20043;-59
2022/03/22 11:04:22;;;;;;;36.13;20.73;;;;;;;20.55;35.36;103235.63;5011074;28;20826;-59
2022/03/22 11:06:48;;;;;;;32.35;21.15;;;;;;;20.67;35.27;103226.91;5011339;28;20045;-58
2022/03/22 11:09:17;;;;;;;36.50;22.52;;;;;;;20.68;36.31;103229.53;5016019;28;20406;-59
2022/03/22 11:11:44;;;;;;;35.78;22.77;;;;;;;20.67;35.15;103232.19;5023246;28;20505;-59
2022/03/22 11:14:13;;;;;;;35.67;21.23;;;;;;;20.49;35.13;103228.47;5003228;28;20059;-59
2022/03/22 11:16:40;;;;;;;32.35;20.50;;;;;;;20.52;33.79;103224.97;5004453;28;20132;-59
2022/03/22 11:19:06;;;;;;;36.90;20.23;;;;;;;20.36;34.16;103226.59;5019667;28;20115;-59
2022/03/22 11:21:32;;;;;;;34.08;20.65;;;;;;;20.63;34.97;103224.19;5007692;28;20382;-58
2022/03/22 11:24:09;;;;;;;33.63;19.83;;;;;;;20.72;34.35;103223.41;5010378;28;20071;-58
2022/03/22 11:26:58;;;;;;;28.23;18.13;;;;;;;20.88;33.48;103227.06;5010949;28;20132;-58
2022/03/22 11:29:25;;;;;;;35.72;21.02;;;;;;;20.84;34.19;103217.31;5020027;28;20094;-59
2022/03/22 11:34:36;;;;;;;33.67;19.70;;;;;;;21.09;33.69;103221.03;5012573;28;20879;-60
2022/03/22 11:37:02;;;;;;;31.52;18.95;;;;;;;21.13;33.58;103221.06;5022705;28;20060;-60
2022/03/22 11:42:29;;;;;;;33.35;21.33;;;;;;;21.02;33.53;103215.69;4979334;28;20041;-60
2022/03/22 11:44:56;;;;;;;31.33;20.90;;;;;;;21.09;34.38;103219.28;5007545;28;20462;-59
2022/03/22 11:47:22;;;;;;;31.00;19.40;;;;;;;21.11;33.07;103217.50;5011626;28;20435;-59
2022/03/22 11:49:47;;;;;;;33.20;18.35;;;;;;;21.05;33.56;103221.00;5018549;28;20056;-59
2022/03/22 11:52:13;;;;;;;28.42;15.63;;;;;;;21.02;32.46;103214.81;5018997;28;20056;-59